Time;durP1;ratioP1;P1;durP2;ratioP2;P2;SDS_P1;SDS_P2;PMS_P1;PMS_P2;Temp;Humidity;BMP_temperature;BMP_pressure;BME280_temperature;BME280_humidity;BME280_pressure;Samples;Min_cycle;Max_cycle;Signal;HPM_P1;HPM_P2
2022/01/01 00:02:28;;;;;;;19.88;15.00;;;;;;;11.21;82.35;99936.75;2619132;54;20042;-66
2022/01/01 00:05:08;;;;;;;17.15;12.93;;;;;;;11.12;82.19;99941.25;2619033;54;20049;-68
2022/01/01 00:07:39;;;;;;;16.52;13.15;;;;;;;11.14;82.52;99944.56;2618616;54;20038;-68
2022/01/01 00:10:09;;;;;;;16.60;13.00;;;;;;;11.14;82.34;99952.50;2619285;39;20433;-68
2022/01/01 00:12:39;;;;;;;15.82;13.38;;;;;;;11.08;82.33;99949.69;2618355;47;20030;-67
2022/01/01 00:15:09;;;;;;;16.65;13.98;;;;;;;11.07;82.37;99946.22;2618765;54;20039;-67
2022/01/01 00:17:41;;;;;;;15.85;13.00;;;;;;;11.03;82.49;99946.72;2619624;31;20490;-66
2022/01/01 00:20:12;;;;;;;16.88;12.80;;;;;;;11.02;82.55;99945.91;2619529;39;20391;-67
2022/01/01 00:22:42;;;;;;;16.02;11.77;;;;;;;10.93;82.97;99938.94;2618374;47;20039;-67
2022/01/01 00:25:13;;;;;;;15.10;11.50;;;;;;;10.93;83.27;99946.06;2617841;47;20057;-67
2022/01/01 00:27:43;;;;;;;14.93;11.55;;;;;;;10.94;82.95;99940.63;2619036;54;20041;-69
2022/01/01 00:30:14;;;;;;;22.27;17.33;;;;;;;10.97;82.73;99931.50;2618731;54;20038;-67
2022/01/01 00:32:46;;;;;;;18.42;13.35;;;;;;;10.90;83.06;99937.47;2618800;54;20077;-67
2022/01/01 00:35:15;;;;;;;16.40;13.68;;;;;;;10.87;83.17;99934.34;2618909;54;20129;-68
2022/01/01 00:37:45;;;;;;;19.02;13.75;;;;;;;10.86;82.78;99937.97;2618434;54;20034;-67
2022/01/01 00:40:15;;;;;;;28.88;14.65;;;;;;;10.79;82.92;99927.22;2618893;54;20085;-67
2022/01/01 00:42:44;;;;;;;17.23;14.77;;;;;;;10.74;83.33;99918.16;2618627;54;20086;-67
2022/01/01 00:45:14;;;;;;;20.33;15.32;;;;;;;10.82;83.70;99911.03;2619000;54;20049;-67
2022/01/01 00:47:46;;;;;;;20.77;15.10;;;;;;;10.86;83.37;99909.69;2618311;54;20078;-67
2022/01/01 00:50:16;;;;;;;18.48;15.07;;;;;;;10.81;83.16;99913.81;2618851;54;20026;-67
2022/01/01 00:52:46;;;;;;;18.55;14.95;;;;;;;10.82;83.46;99923.44;2618415;54;20568;-68
2022/01/01 00:55:16;;;;;;;20.00;15.50;;;;;;;10.88;83.80;99917.47;2619697;54;20077;-66
2022/01/01 00:57:46;;;;;;;20.67;14.57;;;;;;;10.87;83.47;99913.16;2625116;54;20081;-67
2022/01/01 01:00:15;;;;;;;19.48;14.95;;;;;;;10.87;83.34;99911.34;2626595;54;20034;-66
2022/01/01 01:02:48;;;;;;;21.40;16.23;;;;;;;10.95;83.41;99912.34;2626595;54;20058;-67
2022/01/01 01:05:17;;;;;;;20.15;15.80;;;;;;;11.01;83.54;99906.38;2624674;54;20106;-67
2022/01/01 01:07:47;;;;;;;21.48;15.48;;;;;;;11.05;83.04;99905.03;2625188;39;20453;-66
2022/01/01 01:10:16;;;;;;;23.50;16.67;;;;;;;11.09;83.60;99901.06;2624680;54;20046;-67
2022/01/01 01:12:48;;;;;;;21.50;15.57;;;;;;;11.12;83.45;99909.47;2624434;54;20058;-67
2022/01/01 01:15:19;;;;;;;22.95;15.63;;;;;;;11.18;82.93;99904.50;2623924;54;20038;-67
2022/01/01 01:17:53;;;;;;;20.20;15.68;;;;;;;11.23;82.72;99903.00;2620733;54;20030;-67
2022/01/01 01:20:23;;;;;;;21.85;17.30;;;;;;;11.21;82.51;99910.28;2619406;54;20034;-67
2022/01/01 01:22:53;;;;;;;20.58;16.58;;;;;;;11.18;82.83;99897.38;2619341;39;20450;-68
2022/01/01 01:25:24;;;;;;;21.40;16.35;;;;;;;11.20;82.79;99902.53;2618951;31;20511;-67
2022/01/01 01:27:54;;;;;;;20.95;15.48;;;;;;;11.20;82.54;99905.16;2618653;31;20491;-67
2022/01/01 01:30:25;;;;;;;22.08;15.77;;;;;;;11.15;82.66;99897.75;2618886;54;20035;-69
2022/01/01 01:32:57;;;;;;;21.63;15.57;;;;;;;11.18;82.40;99893.91;2619055;39;20534;-67
2022/01/01 01:35:27;;;;;;;19.35;15.15;;;;;;;11.24;82.78;99906.47;2618611;54;20617;-67
2022/01/01 01:37:57;;;;;;;20.95;15.30;;;;;;;11.25;82.54;99908.94;2618897;47;20089;-67
2022/01/01 01:40:27;;;;;;;22.20;16.08;;;;;;;11.25;82.62;99913.41;2620625;54;20043;-67
2022/01/01 01:42:56;;;;;;;20.92;16.23;;;;;;;11.25;82.08;99911.59;2619899;50;20074;-67
2022/01/01 01:45:28;;;;;;;22.08;16.23;;;;;;;11.19;82.27;99917.59;2620725;54;20078;-67
2022/01/01 01:48:01;;;;;;;20.15;15.55;;;;;;;11.19;82.01;99911.47;2620498;54;20073;-67
2022/01/01 01:50:33;;;;;;;19.30;14.85;;;;;;;11.19;82.57;99909.66;2620680;54;20030;-68
2022/01/01 01:53:04;;;;;;;18.48;14.57;;;;;;;11.18;82.01;99909.78;2620638;54;20042;-67
2022/01/01 01:55:34;;;;;;;20.08;15.13;;;;;;;11.26;82.17;99907.13;2620597;54;20073;-67
2022/01/01 01:58:03;;;;;;;22.30;16.77;;;;;;;11.29;82.33;99915.56;2620346;54;20031;-68
2022/01/01 02:03:18;;;;;;;19.63;16.58;;;;;;;11.33;82.02;99924.81;2621034;54;20138;-67
2022/01/01 02:05:50;;;;;;;19.35;14.50;;;;;;;11.32;82.09;99930.28;2620930;54;20050;-66
2022/01/01 02:08:21;;;;;;;22.40;15.45;;;;;;;11.30;82.31;99927.78;2620625;54;20046;-68
2022/01/01 02:10:52;;;;;;;20.65;15.35;;;;;;;11.33;82.21;99931.94;2620098;54;20150;-68
2022/01/01 02:13:27;;;;;;;19.98;15.52;;;;;;;11.32;81.83;99928.47;2620063;47;20150;-67
2022/01/01 02:18:47;;;;;;;22.75;16.80;;;;;;;11.32;81.88;99925.00;2620503;54;20038;-68
2022/01/01 02:21:20;;;;;;;22.77;16.27;;;;;;;11.28;82.01;99927.16;2620731;54;20074;-67
2022/01/01 02:23:57;;;;;;;23.98;17.10;;;;;;;11.27;81.76;99932.63;2620372;54;20138;-68
2022/01/01 02:26:31;;;;;;;23.02;17.08;;;;;;;11.30;81.85;99926.97;2620335;54;20122;-67
2022/01/01 02:29:03;;;;;;;22.20;17.10;;;;;;;11.29;82.12;99927.97;2620108;54;20089;-68
2022/01/01 02:31:35;;;;;;;20.17;15.57;;;;;;;11.26;82.24;99930.94;2620168;54;20033;-67
2022/01/01 02:34:06;;;;;;;23.50;16.45;;;;;;;11.27;82.14;99932.63;2619706;54;20030;-68
2022/01/01 02:36:41;;;;;;;22.77;16.83;;;;;;;11.26;81.83;99925.66;2619845;54;20034;-67
2022/01/01 02:39:15;;;;;;;21.52;16.20;;;;;;;11.30;82.10;99925.13;2620201;54;20050;-67
2022/01/01 02:41:45;;;;;;;24.52;17.83;;;;;;;11.26;81.68;99929.13;2619948;47;20031;-67
2022/01/01 02:44:16;;;;;;;22.50;16.10;;;;;;;11.30;81.93;99917.19;2621133;39;20421;-68
2022/01/01 02:46:46;;;;;;;22.50;16.15;;;;;;;11.30;82.15;99919.03;2619846;54;20067;-67
2022/01/01 02:49:15;;;;;;;25.13;16.90;;;;;;;11.22;82.05;99908.47;2619254;54;20154;-67
2022/01/01 02:51:47;;;;;;;22.40;15.27;;;;;;;11.18;81.86;99902.69;2618716;47;20030;-67
2022/01/01 02:54:17;;;;;;;24.17;17.10;;;;;;;11.19;82.15;99904.34;2619264;54;20336;-66
2022/01/01 02:56:48;;;;;;;27.58;17.98;;;;;;;11.16;82.20;99896.75;2619218;54;20038;-67
2022/01/01 02:59:18;;;;;;;25.20;18.25;;;;;;;11.11;82.64;99891.13;2619374;54;20086;-67
2022/01/01 03:01:47;;;;;;;25.45;17.65;;;;;;;11.12;82.72;99895.44;2619301;54;20038;-68
2022/01/01 03:04:17;;;;;;;24.90;17.00;;;;;;;11.12;82.93;99898.06;2619190;54;20098;-66
2022/01/01 03:06:53;;;;;;;24.98;18.13;;;;;;;11.10;82.96;99906.19;2619066;54;20082;-67
2022/01/01 03:09:24;;;;;;;25.58;17.58;;;;;;;11.10;82.34;99892.09;2618958;54;20034;-66
2022/01/01 03:11:54;;;;;;;25.58;17.20;;;;;;;11.10;83.01;99889.47;2618794;54;20081;-66
2022/01/01 03:14:23;;;;;;;25.02;17.75;;;;;;;11.11;82.87;99885.84;2618919;54;20518;-66
2022/01/01 03:16:55;;;;;;;28.17;17.83;;;;;;;11.04;82.65;99883.03;2619531;54;20026;-66
2022/01/01 03:19:25;;;;;;;27.13;18.00;;;;;;;10.99;82.93;99873.97;2622000;31;20451;-67
2022/01/01 03:21:57;;;;;;;23.65;17.48;;;;;;;11.02;82.76;99863.88;2620466;54;20134;-67
2022/01/01 03:24:26;;;;;;;24.30;18.30;;;;;;;11.00;82.76;99868.50;2620484;47;20070;-66
2022/01/01 03:26:57;;;;;;;28.77;19.20;;;;;;;10.94;83.31;99861.25;2619141;54;20030;-67
2022/01/01 03:29:28;;;;;;;26.02;18.70;;;;;;;10.94;83.25;99869.19;2618295;54;20110;-66
2022/01/01 03:31:58;;;;;;;24.77;17.42;;;;;;;10.87;83.29;99876.13;2619156;54;20058;-66
2022/01/01 03:34:28;;;;;;;23.15;17.40;;;;;;;10.86;82.90;99877.13;2618894;54;20085;-66
2022/01/01 03:37:00;;;;;;;26.00;18.40;;;;;;;10.82;83.49;99884.59;2618850;54;20034;-66
2022/01/01 03:39:30;;;;;;;24.20;16.55;;;;;;;10.78;83.53;99901.78;2618927;54;20077;-66
2022/01/01 03:42:00;;;;;;;24.73;17.23;;;;;;;10.78;83.39;99901.78;2619039;54;20081;-66
2022/01/01 03:44:29;;;;;;;29.13;18.50;;;;;;;10.83;83.60;99904.75;2619276;39;20567;-68
2022/01/01 03:47:09;;;;;;;29.25;18.88;;;;;;;10.81;83.55;99908.53;2618957;39;20132;-67
2022/01/01 03:49:39;;;;;;;25.73;17.40;;;;;;;10.85;83.74;99905.38;2618470;54;20027;-66
2022/01/01 03:52:11;;;;;;;26.63;17.95;;;;;;;10.81;83.32;99903.25;2619669;54;20030;-67
2022/01/01 03:54:41;;;;;;;33.03;19.92;;;;;;;10.81;83.45;99911.19;2623574;54;20030;-66
2022/01/01 03:57:10;;;;;;;26.08;19.10;;;;;;;10.83;83.59;99903.91;2620139;54;20042;-67
2022/01/01 03:59:40;;;;;;;27.23;17.73;;;;;;;10.85;83.87;99908.03;2620437;31;20549;-67
2022/01/01 04:02:09;;;;;;;25.58;16.80;;;;;;;10.90;83.18;99897.78;2619254;54;20549;-67
2022/01/01 04:04:39;;;;;;;24.27;17.02;;;;;;;10.93;83.72;99895.78;2618865;39;20482;-67
2022/01/01 04:07:11;;;;;;;25.63;18.23;;;;;;;10.99;83.50;99901.25;2617863;54;20038;-67
2022/01/01 04:09:41;;;;;;;26.00;17.23;;;;;;;11.06;83.21;99893.44;2619059;54;20062;-67
2022/01/01 04:12:10;;;;;;;24.65;18.25;;;;;;;11.03;83.02;99893.81;2618917;54;20129;-67
2022/01/01 04:14:40;;;;;;;25.20;17.38;;;;;;;11.07;83.38;99897.75;2621102;47;20034;-67
2022/01/01 04:17:10;;;;;;;25.40;17.33;;;;;;;11.08;83.35;99883.53;2622457;39;20399;-67
2022/01/01 04:19:41;;;;;;;25.00;17.17;;;;;;;11.00;82.92;99887.03;2618854;54;20034;-68
2022/01/01 04:22:15;;;;;;;23.77;17.40;;;;;;;11.00;83.43;99902.06;2618716;54;20069;-67
2022/01/01 04:24:44;;;;;;;26.50;16.52;;;;;;;10.99;83.23;99903.06;2618381;54;20177;-67
2022/01/01 04:27:14;;;;;;;29.70;19.38;;;;;;;10.98;83.53;99907.53;2618475;39;20549;-67
2022/01/01 04:29:44;;;;;;;28.40;19.48;;;;;;;10.98;83.18;99917.28;2618296;54;20117;-67
2022/01/01 04:32:14;;;;;;;26.77;18.13;;;;;;;10.96;82.95;99919.28;2619042;54;20086;-68
2022/01/01 04:34:44;;;;;;;27.80;17.83;;;;;;;11.01;83.17;99916.94;2618382;54;20114;-67
2022/01/01 04:37:16;;;;;;;23.35;17.00;;;;;;;11.04;83.20;99916.63;2618363;54;20039;-67
2022/01/01 04:39:46;;;;;;;24.10;17.23;;;;;;;11.04;83.11;99911.31;2618368;54;20137;-67
2022/01/01 04:42:16;;;;;;;26.20;17.17;;;;;;;11.06;82.90;99911.97;2618380;54;20027;-66
2022/01/01 04:44:45;;;;;;;23.52;16.73;;;;;;;11.07;83.10;99901.22;2617677;47;20078;-66
2022/01/01 04:47:15;;;;;;;24.45;16.73;;;;;;;11.08;82.91;99908.16;2617994;54;20166;-66
2022/01/01 04:49:44;;;;;;;24.58;16.77;;;;;;;11.09;82.87;99907.16;2617528;47;20018;-67
2022/01/01 04:52:16;;;;;;;23.05;17.30;;;;;;;11.14;83.20;99901.38;2617823;54;20034;-67
2022/01/01 04:54:46;;;;;;;23.13;16.48;;;;;;;11.10;83.03;99892.09;2618452;54;20086;-67
2022/01/01 04:57:16;;;;;;;23.73;15.95;;;;;;;11.09;82.99;99893.94;2618186;54;20109;-67
2022/01/01 04:59:45;;;;;;;24.95;16.05;;;;;;;11.09;82.99;99887.81;2618517;39;20473;-67
2022/01/01 05:02:15;;;;;;;22.27;16.50;;;;;;;11.06;82.95;99896.09;2618270;54;20038;-67
2022/01/01 05:04:44;;;;;;;22.30;15.43;;;;;;;11.03;82.64;99896.44;2618197;54;20054;-67
2022/01/01 05:07:17;;;;;;;22.73;16.23;;;;;;;10.97;82.72;99905.03;2619076;31;20553;-67
2022/01/01 05:09:46;;;;;;;23.30;16.13;;;;;;;10.91;82.92;99901.25;2617799;54;20030;-67
2022/01/01 05:12:16;;;;;;;23.63;15.40;;;;;;;10.93;83.26;99899.25;2618020;54;20038;-68
2022/01/01 05:14:45;;;;;;;22.52;15.85;;;;;;;10.90;83.00;99895.16;2618210;54;20118;-68
2022/01/01 05:17:15;;;;;;;24.67;16.10;;;;;;;10.85;83.17;99900.09;2618440;54;20078;-67
2022/01/01 05:19:44;;;;;;;24.20;16.13;;;;;;;10.80;83.26;99904.25;2618727;39;20435;-66
2022/01/01 05:22:16;;;;;;;24.05;15.50;;;;;;;10.81;83.38;99906.72;2617905;47;20088;-66
2022/01/01 05:24:46;;;;;;;24.15;15.30;;;;;;;10.82;83.32;99905.75;2617905;50;20182;-66
2022/01/01 05:27:15;;;;;;;21.73;15.40;;;;;;;10.87;83.09;99911.34;2617923;54;20053;-66
2022/01/01 05:29:45;;;;;;;21.92;15.18;;;;;;;10.90;83.23;99916.31;2618124;39;20403;-67
2022/01/01 05:32:14;;;;;;;23.67;16.48;;;;;;;10.86;83.29;99915.00;2618101;54;20042;-67
2022/01/01 05:34:44;;;;;;;21.88;16.27;;;;;;;10.82;83.34;99908.38;2624676;54;20039;-67
2022/01/01 05:37:17;;;;;;;25.55;16.45;;;;;;;10.80;83.32;99910.34;2625349;54;20138;-67
2022/01/01 05:39:47;;;;;;;23.73;16.92;;;;;;;10.83;83.28;99915.31;2624915;54;20035;-67
2022/01/01 05:42:16;;;;;;;23.00;16.17;;;;;;;10.86;83.21;99919.47;2625000;39;20713;-67
2022/01/01 05:44:46;;;;;;;24.95;16.98;;;;;;;10.89;83.46;99916.47;2626266;39;20407;-67
2022/01/01 05:47:15;;;;;;;23.58;17.00;;;;;;;10.82;83.04;99920.78;2623874;54;20042;-67
2022/01/01 05:49:45;;;;;;;21.95;15.65;;;;;;;10.79;83.20;99918.47;2624720;54;20030;-68
2022/01/01 05:52:17;;;;;;;26.20;17.38;;;;;;;10.79;83.14;99911.34;2623154;54;20035;-67
2022/01/01 05:54:46;;;;;;;25.80;17.23;;;;;;;10.81;83.41;99903.25;2618259;31;20462;-67
2022/01/01 05:57:16;;;;;;;21.55;16.70;;;;;;;10.79;83.34;99898.13;2618674;39;20522;-67
2022/01/01 05:59:45;;;;;;;26.20;17.42;;;;;;;10.80;83.48;99894.50;2618289;54;20126;-67
2022/01/01 06:02:15;;;;;;;23.38;17.08;;;;;;;10.83;83.59;99893.34;2618177;54;20038;-67
2022/01/01 06:04:47;;;;;;;25.70;17.02;;;;;;;10.83;83.14;99890.69;2618081;54;20656;-67
2022/01/01 06:07:19;;;;;;;25.85;16.38;;;;;;;10.84;83.37;99881.75;2618083;54;20193;-67
2022/01/01 06:09:49;;;;;;;24.80;16.75;;;;;;;10.84;83.00;99881.75;2617364;54;20580;-67
2022/01/01 06:12:19;;;;;;;23.90;15.95;;;;;;;10.74;82.85;99889.88;2618352;54;20066;-67
2022/01/01 06:14:48;;;;;;;21.38;14.73;;;;;;;10.72;83.26;99885.75;2619163;39;20402;-66
2022/01/01 06:17:18;;;;;;;21.50;14.02;;;;;;;10.67;82.93;99888.88;2619682;54;20568;-67
2022/01/01 06:19:47;;;;;;;22.08;13.40;;;;;;;10.61;83.08;99886.91;2620269;31;20573;-68
2022/01/01 06:22:20;;;;;;;17.52;12.85;;;;;;;10.55;83.06;99877.00;2618280;54;20805;-66
2022/01/01 06:24:49;;;;;;;18.67;12.68;;;;;;;10.52;83.30;99877.31;2619061;54;20085;-66
2022/01/01 06:27:19;;;;;;;16.88;12.60;;;;;;;10.49;83.19;99875.84;2618823;31;20522;-67
2022/01/01 06:29:50;;;;;;;18.38;11.82;;;;;;;10.42;83.27;99882.78;2620462;31;20538;-67
2022/01/01 06:32:19;;;;;;;15.20;12.35;;;;;;;10.45;83.55;99889.53;2619041;54;20082;-66
2022/01/01 06:34:49;;;;;;;17.80;12.52;;;;;;;10.43;83.29;99892.34;2619823;54;20621;-67
2022/01/01 06:37:21;;;;;;;17.67;11.95;;;;;;;10.37;83.50;99899.16;2622914;54;20042;-67
2022/01/01 06:39:50;;;;;;;16.52;11.50;;;;;;;10.35;83.16;99898.47;2623930;54;20038;-67
2022/01/01 06:42:20;;;;;;;16.75;11.95;;;;;;;10.29;83.58;99893.84;2623321;54;20072;-66
2022/01/01 06:44:50;;;;;;;17.83;12.30;;;;;;;10.28;83.31;99905.38;2618846;54;20541;-67
2022/01/01 06:47:19;;;;;;;17.55;11.10;;;;;;;10.30;83.61;99902.59;2618530;54;20077;-67
2022/01/01 06:49:49;;;;;;;17.05;11.20;;;;;;;10.35;83.74;99895.81;2618625;54;20580;-67
2022/01/01 06:52:21;;;;;;;16.55;11.52;;;;;;;10.38;83.42;99903.44;2618853;54;20042;-66
2022/01/01 06:54:50;;;;;;;15.25;11.95;;;;;;;10.40;83.30;99912.00;2618190;54;20038;-66
2022/01/01 06:57:20;;;;;;;17.65;11.95;;;;;;;10.49;83.73;99912.88;2617980;47;20110;-67
2022/01/01 06:59:49;;;;;;;17.63;11.45;;;;;;;10.57;83.49;99906.72;2619273;31;20530;-67
2022/01/01 07:02:19;;;;;;;15.98;11.00;;;;;;;10.60;83.03;99903.75;2619163;31;20506;-67
2022/01/01 07:04:49;;;;;;;14.57;10.68;;;;;;;10.61;83.59;99906.25;2618550;54;20030;-67
2022/01/01 07:07:21;;;;;;;17.00;10.90;;;;;;;10.65;83.18;99907.59;2618826;54;20081;-66
2022/01/01 07:09:50;;;;;;;16.65;11.63;;;;;;;10.68;83.21;99916.97;2618840;54;20094;-66
2022/01/01 07:12:20;;;;;;;14.40;11.02;;;;;;;10.68;82.73;99921.44;2618925;54;20050;-67
2022/01/01 07:14:49;;;;;;;14.82;10.10;;;;;;;10.64;82.75;99924.41;2619007;54;20081;-67
2022/01/01 07:17:19;;;;;;;15.52;11.00;;;;;;;10.61;82.49;99927.41;2618671;54;20085;-66
2022/01/01 07:19:48;;;;;;;14.43;10.85;;;;;;;10.67;82.87;99928.56;2618620;54;20019;-66
2022/01/01 07:22:20;;;;;;;15.10;10.65;;;;;;;10.62;83.03;99923.75;2618615;54;20118;-67
2022/01/01 07:24:50;;;;;;;15.40;10.90;;;;;;;10.65;83.19;99928.72;2618123;54;20038;-67
2022/01/01 07:27:20;;;;;;;16.92;11.02;;;;;;;10.59;83.22;99933.84;2618399;54;20081;-68
2022/01/01 07:29:50;;;;;;;15.18;11.20;;;;;;;10.65;82.87;99935.81;2618797;54;20081;-68
2022/01/01 07:32:19;;;;;;;13.43;10.95;;;;;;;10.69;82.87;99937.13;2618822;54;20134;-66
2022/01/01 07:34:49;;;;;;;19.08;10.98;;;;;;;10.69;83.20;99949.53;2618425;54;20027;-67
2022/01/01 07:37:21;;;;;;;16.63;11.68;;;;;;;10.69;82.94;99947.72;2618852;39;20502;-67
2022/01/01 07:39:51;;;;;;;16.13;11.18;;;;;;;10.73;82.87;99954.31;2619125;54;20030;-67
2022/01/01 07:42:20;;;;;;;17.83;11.20;;;;;;;10.79;83.01;99966.09;2618903;54;20078;-68
2022/01/01 07:44:50;;;;;;;17.50;11.30;;;;;;;10.74;82.82;99976.34;2619742;54;20058;-68
2022/01/01 07:47:20;;;;;;;17.65;11.30;;;;;;;10.73;83.25;99978.13;2619649;54;20030;-65
2022/01/01 07:49:49;;;;;;;15.77;11.45;;;;;;;10.75;82.99;99975.34;2619279;47;20034;-67
2022/01/01 07:52:22;;;;;;;18.48;11.90;;;;;;;10.74;82.90;99979.81;2619596;47;20023;-67
2022/01/01 07:54:52;;;;;;;16.02;11.57;;;;;;;10.73;83.10;99982.59;2620041;54;20031;-67
2022/01/01 07:57:25;;;;;;;16.48;10.95;;;;;;;10.76;82.95;99984.91;2619126;47;20037;-68
2022/01/01 07:59:54;;;;;;;17.45;11.57;;;;;;;10.76;82.99;99980.44;2623096;39;20462;-67
2022/01/01 08:02:24;;;;;;;13.80;10.90;;;;;;;10.79;82.73;99977.47;2619720;54;20076;-68
2022/01/01 08:04:54;;;;;;;15.32;10.60;;;;;;;10.81;82.31;99972.84;2620492;54;20027;-67
2022/01/01 08:07:26;;;;;;;14.38;10.32;;;;;;;10.87;82.30;99980.13;2619293;54;20030;-68
2022/01/01 08:10:17;;;;;;;13.80;9.82;;;;;;;10.95;82.44;99975.84;2619755;47;20049;-68
2022/01/01 08:12:46;;;;;;;15.45;10.75;;;;;;;10.90;82.40;99969.22;2620021;54;20119;-68
2022/01/01 08:15:16;;;;;;;14.90;10.20;;;;;;;10.96;82.30;99972.19;2619874;54;20031;-67
2022/01/01 08:17:48;;;;;;;13.80;9.77;;;;;;;10.98;81.98;99975.47;2619830;54;20024;-66
2022/01/01 08:20:18;;;;;;;14.75;9.85;;;;;;;10.96;81.90;99974.84;2620132;39;20454;-67
2022/01/01 08:22:50;;;;;;;12.43;8.40;;;;;;;10.88;81.64;99978.31;2619002;54;20035;-66
2022/01/01 08:25:21;;;;;;;13.73;10.00;;;;;;;10.86;81.92;99983.78;2619716;39;20430;-67
2022/01/01 08:27:51;;;;;;;15.23;10.23;;;;;;;10.93;82.27;99977.81;2618880;54;20026;-67
2022/01/01 08:30:21;;;;;;;12.38;9.25;;;;;;;11.05;82.13;99972.00;2619126;54;20102;-66
2022/01/01 08:32:51;;;;;;;13.18;9.00;;;;;;;11.01;81.63;99970.69;2619028;54;20054;-67
2022/01/01 08:35:21;;;;;;;12.38;9.30;;;;;;;11.10;81.70;99975.00;2618877;54;20126;-67
2022/01/01 08:37:53;;;;;;;12.75;9.20;;;;;;;11.13;81.66;99979.13;2620746;47;20540;-67
2022/01/01 08:40:25;;;;;;;12.40;8.93;;;;;;;11.13;81.68;99974.63;2623871;54;20031;-67
2022/01/01 08:42:54;;;;;;;15.30;9.50;;;;;;;11.16;81.62;99966.38;2621518;54;20026;-67
2022/01/01 08:45:24;;;;;;;13.30;9.20;;;;;;;11.25;81.30;99967.19;2618873;54;20063;-67
2022/01/01 08:47:54;;;;;;;16.00;12.80;;;;;;;11.34;81.33;99965.34;2617684;54;20042;-68
2022/01/01 08:50:24;;;;;;;13.27;10.93;;;;;;;11.34;80.54;99968.81;2618522;54;20034;-67
2022/01/01 08:52:57;;;;;;;14.15;9.38;;;;;;;11.29;80.31;99965.03;2619284;47;20082;-67
2022/01/01 11:19:19;;;;;;;8.98;4.70;;;;;;;13.41;75.21;99902.66;2622866;46;20525;-71
2022/01/01 11:21:48;;;;;;;8.50;5.53;;;;;;;13.48;74.84;99900.91;2622940;54;20031;-72
2022/01/01 11:24:18;;;;;;;5.60;4.53;;;;;;;13.48;74.42;99895.59;2623466;54;20077;-70
2022/01/01 11:26:49;;;;;;;7.47;5.05;;;;;;;13.42;74.75;99888.34;2622239;54;20538;-71
2022/01/01 11:29:19;;;;;;;7.40;5.20;;;;;;;13.42;74.89;99882.22;2622296;54;20035;-69
2022/01/01 11:31:50;;;;;;;7.10;4.93;;;;;;;13.54;74.40;99880.75;2623488;54;20041;-71
2022/01/01 11:34:23;;;;;;;6.97;5.78;;;;;;;13.62;74.52;99877.97;2622743;54;20101;-70
2022/01/01 11:36:53;;;;;;;8.07;5.50;;;;;;;13.70;74.40;99877.88;2623326;54;20038;-70
2022/01/01 11:39:24;;;;;;;11.82;5.40;;;;;;;13.71;73.94;99876.84;2622807;54;20038;-70
2022/01/01 11:41:54;;;;;;;8.70;4.57;;;;;;;13.68;73.85;99873.78;2622812;54;20130;-71
2022/01/01 11:44:28;;;;;;;8.73;5.63;;;;;;;13.66;73.58;99876.59;2623650;39;20441;-70
2022/01/01 11:47:01;;;;;;;7.10;5.32;;;;;;;13.65;74.10;99861.66;2622443;47;20034;-71
2022/01/01 11:49:34;;;;;;;8.00;5.65;;;;;;;13.74;73.62;99865.84;2623285;54;20022;-72
2022/01/01 11:52:39;;;;;;;6.88;5.60;;;;;;;13.79;73.46;99868.78;2622878;54;20026;-70
2022/01/01 11:55:13;;;;;;;7.97;5.78;;;;;;;13.76;73.83;99855.06;2622439;51;20042;-71
2022/01/01 11:57:56;;;;;;;;;;;;;;;13.73;73.41;99852.78;2621719;47;20030;-70
2022/01/01 12:00:26;;;;;;;6.68;4.78;;;;;;;13.79;73.62;99847.50;2623141;54;19946;-70
2022/01/01 12:03:13;;;;;;;7.80;5.05;;;;;;;13.84;73.57;99837.16;2623491;54;20030;-70
2022/01/01 12:06:05;;;;;;;7.95;5.57;;;;;;;13.93;73.03;99837.03;2623147;54;20037;-71
2022/01/01 12:08:44;;;;;;;7.32;5.05;;;;;;;14.03;73.21;99834.88;2622721;54;20030;-70
2022/01/01 12:11:30;;;;;;;8.05;4.80;;;;;;;14.11;72.92;99829.44;2622756;54;20038;-71
2022/01/01 12:14:02;;;;;;;9.23;5.60;;;;;;;14.13;73.02;99830.91;2623287;47;20106;-70
2022/01/01 12:16:32;;;;;;;8.00;4.50;;;;;;;14.24;72.50;99820.75;2622982;54;20542;-70
2022/01/01 12:19:06;;;;;;;7.10;5.07;;;;;;;14.24;72.42;99818.91;2622642;54;20083;-71
2022/01/01 12:21:44;;;;;;;5.55;4.68;;;;;;;14.25;72.24;99822.41;2622629;54;20030;-71
2022/01/01 12:24:20;;;;;;;7.07;4.72;;;;;;;14.24;71.94;99818.91;2624649;39;20552;-70
2022/01/01 12:26:55;;;;;;;8.30;5.30;;;;;;;14.23;71.62;99819.94;2622326;54;20042;-71
2022/01/01 12:29:28;;;;;;;8.13;5.53;;;;;;;14.26;71.84;99816.06;2622592;54;20031;-70
2022/01/01 12:31:59;;;;;;;5.57;3.97;;;;;;;14.24;72.10;99810.94;2622825;54;20026;-70
2022/01/01 12:34:29;;;;;;;7.00;4.22;;;;;;;14.29;71.45;99808.53;2622321;54;20584;-69
2022/01/01 12:37:07;;;;;;;8.10;4.60;;;;;;;14.25;71.51;99809.94;2621998;54;20026;-71
2022/01/01 12:40:01;;;;;;;9.10;5.65;;;;;;;14.33;71.71;99808.97;2622620;39;20446;-69
2022/01/01 12:42:33;;;;;;;9.30;4.70;;;;;;;14.25;71.62;99799.31;2622294;54;20035;-69
2022/01/01 12:45:05;;;;;;;10.23;6.55;;;;;;;14.24;71.63;99797.63;2622569;46;20057;-70
2022/01/01 12:47:36;;;;;;;6.13;4.63;;;;;;;14.27;71.58;99796.44;2621478;54;20034;-69
2022/01/01 12:50:09;;;;;;;11.85;8.32;;;;;;;14.43;71.64;99803.31;2620849;54;20022;-69
2022/01/01 12:52:41;;;;;;;10.55;6.30;;;;;;;14.45;71.72;99787.97;2622573;54;20038;-70
2022/01/01 12:55:13;;;;;;;6.80;4.80;;;;;;;14.37;71.47;99789.78;2622745;54;20041;-70
2022/01/01 12:57:43;;;;;;;6.15;4.95;;;;;;;14.36;71.31;99787.28;2622120;54;20050;-70
2022/01/01 13:00:23;;;;;;;7.93;5.13;;;;;;;14.27;71.85;99791.94;2623041;54;20038;-70
2022/01/01 13:02:58;;;;;;;;;;;;;;;14.16;71.62;99791.63;2623457;39;20418;-70
2022/01/01 13:05:28;;;;;;;5.00;3.85;;;;;;;14.10;72.27;99786.06;2624777;39;20426;-70
2022/01/01 13:08:00;;;;;;;6.63;4.03;;;;;;;14.08;72.14;99774.81;2623794;39;20462;-70
2022/01/01 13:10:30;;;;;;;8.15;4.35;;;;;;;14.13;71.66;99776.91;2624274;54;20034;-70
2022/01/01 13:13:00;;;;;;;6.05;4.18;;;;;;;14.06;71.71;99781.34;2623659;47;20053;-70
2022/01/01 13:15:30;;;;;;;5.68;3.97;;;;;;;14.16;71.32;99771.19;2623583;54;20038;-70
2022/01/01 13:18:02;;;;;;;7.60;4.80;;;;;;;14.10;71.39;99763.97;2623418;54;20035;-70
2022/01/01 13:20:34;;;;;;;8.48;4.50;;;;;;;14.08;71.96;99758.88;2623341;54;20031;-71
2022/01/01 13:23:15;;;;;;;5.13;4.00;;;;;;;14.07;71.67;99756.38;2623513;39;20433;-71
2022/01/01 13:25:45;;;;;;;9.80;3.75;;;;;;;14.19;72.03;99746.06;2622809;54;20026;-71
2022/01/01 13:28:15;;;;;;;6.55;3.65;;;;;;;14.29;71.79;99749.22;2623096;54;20034;-71
2022/01/01 13:30:46;;;;;;;5.95;4.07;;;;;;;14.31;71.21;99747.16;2622874;39;20452;-73
2022/01/01 13:33:17;;;;;;;6.63;3.58;;;;;;;14.26;70.76;99747.75;2622708;54;20038;-71
2022/01/01 13:35:51;;;;;;;5.32;3.38;;;;;;;14.25;71.56;99742.63;2623406;39;20672;-71
2022/01/01 13:38:24;;;;;;;6.70;3.70;;;;;;;14.33;70.67;99742.50;2623109;54;20045;-71
2022/01/01 13:40:56;;;;;;;6.10;3.50;;;;;;;14.25;71.06;99740.78;2623334;54;20042;-73
2022/01/01 13:43:29;;;;;;;3.95;3.40;;;;;;;14.22;71.61;99749.16;2622981;54;20058;-72
2022/01/01 13:46:13;;;;;;;6.07;3.42;;;;;;;14.30;71.28;99738.38;2623039;54;20046;-72
2022/01/01 13:48:46;;;;;;;4.20;3.22;;;;;;;14.29;70.80;99731.41;2623194;54;20553;-72
2022/01/01 13:51:27;;;;;;;4.75;3.15;;;;;;;14.35;70.93;99724.47;2623328;54;20039;-71
2022/01/01 13:54:11;;;;;;;6.65;3.30;;;;;;;14.32;70.88;99723.03;2624062;54;20041;-72
2022/01/01 13:56:41;;;;;;;6.18;3.60;;;;;;;14.38;70.72;99708.16;2622869;47;20035;-71
2022/01/01 13:59:10;;;;;;;6.20;3.28;;;;;;;14.41;70.36;99696.28;2623240;54;20046;-71
2022/01/01 14:01:40;;;;;;;6.85;2.80;;;;;;;14.41;70.39;99698.94;2623092;39;20436;-71
2022/01/01 14:04:13;;;;;;;9.48;5.10;;;;;;;14.45;70.16;99700.19;2622619;54;20038;-70
2022/01/01 14:06:43;;;;;;;6.03;4.78;;;;;;;14.46;70.63;99694.69;2622315;47;20034;-70
2022/01/01 14:09:15;;;;;;;5.93;3.50;;;;;;;14.50;70.34;99697.81;2622492;54;20034;-71
2022/01/01 14:11:45;;;;;;;6.43;3.10;;;;;;;14.51;70.22;99694.94;2622740;54;20039;-70